Time;durP1;ratioP1;P1;durP2;ratioP2;P2;SDS_P1;SDS_P2;PMS_P1;PMS_P2;Temp;Humidity;BMP_temperature;BMP_pressure;BME280_temperature;BME280_humidity;BME280_pressure;Samples;Min_cycle;Max_cycle;Signal;HPM_P1;HPM_P2
2022/04/26 03:37:55;;;;;;;4.38;1.70;;;;;;;13.62;51.33;101248.97;4947724;28;20050;-75
2022/04/26 03:40:23;;;;;;;9.23;2.20;;;;;;;13.62;51.11;101258.50;4989606;28;20112;-76
2022/04/26 03:42:52;;;;;;;5.50;1.63;;;;;;;13.58;51.94;101256.66;4988884;28;20047;-77
2022/04/26 03:45:20;;;;;;;3.33;1.17;;;;;;;13.53;51.67;101266.06;4989296;28;20046;-77
2022/04/26 03:47:49;;;;;;;6.50;1.83;;;;;;;13.50;51.44;101261.69;4989645;28;20500;-75
2022/04/26 03:50:19;;;;;;;5.95;1.48;;;;;;;13.46;51.59;101265.03;4988456;28;20081;-73
2022/04/26 03:52:52;;;;;;;3.17;1.95;;;;;;;13.40;51.13;101265.78;4988991;28;20049;-73
2022/04/26 03:55:21;;;;;;;5.68;1.85;;;;;;;13.35;51.53;101259.56;4989642;28;20050;-74
2022/04/26 03:57:50;;;;;;;5.32;1.63;;;;;;;13.32;51.62;101256.88;4989125;28;20054;-74
2022/04/26 04:00:19;;;;;;;6.47;1.90;;;;;;;13.29;52.14;101262.00;4989427;28;20061;-73
2022/04/26 04:02:47;;;;;;;3.97;1.77;;;;;;;13.25;52.71;101260.13;4989100;28;20441;-74
2022/04/26 04:05:15;;;;;;;3.00;1.70;;;;;;;13.20;52.42;101259.13;4989750;28;20051;-74
2022/04/26 04:07:46;;;;;;;3.17;1.88;;;;;;;13.15;52.62;101258.13;4989524;28;20087;-74
2022/04/26 04:10:14;;;;;;;5.88;2.17;;;;;;;13.11;52.72;101257.16;4988717;28;20070;-74
2022/04/26 04:12:42;;;;;;;7.15;2.35;;;;;;;13.08;52.87;101259.69;4988653;28;20093;-73
2022/04/26 04:15:12;;;;;;;3.63;1.55;;;;;;;13.05;52.62;101263.91;4989075;28;20086;-75
2022/04/26 04:17:40;;;;;;;3.90;1.48;;;;;;;13.01;52.67;101262.97;4989382;28;20153;-72
2022/04/26 04:20:10;;;;;;;8.05;2.08;;;;;;;12.96;53.39;101267.13;4989709;28;20129;-72
2022/04/26 04:22:38;;;;;;;4.75;1.83;;;;;;;12.91;53.93;101266.13;4991176;28;20148;-71
2022/04/26 04:25:09;;;;;;;5.93;1.92;;;;;;;12.85;53.50;101269.44;4989758;28;20109;-74
2022/04/26 04:27:37;;;;;;;4.10;1.73;;;;;;;12.79;54.50;101270.13;4989492;28;20105;-75
2022/04/26 04:30:07;;;;;;;4.35;1.35;;;;;;;12.77;54.63;101266.59;4989099;28;20083;-75
2022/04/26 04:32:35;;;;;;;3.92;1.70;;;;;;;12.71;54.57;101266.44;4988412;28;20054;-76
2022/04/26 04:35:04;;;;;;;4.75;1.92;;;;;;;12.67;54.25;101272.38;4988660;28;20061;-75
2022/04/26 04:37:32;;;;;;;4.50;1.60;;;;;;;12.63;54.22;101275.72;4989170;28;20078;-76
2022/04/26 04:40:01;;;;;;;4.45;1.73;;;;;;;12.58;54.06;101270.38;4988919;28;20141;-76
2022/04/26 04:42:31;;;;;;;3.03;1.52;;;;;;;12.55;54.16;101282.38;4988390;28;20690;-76
2022/04/26 04:44:59;;;;;;;1.75;1.10;;;;;;;12.44;54.10;101276.88;4989330;28;20531;-77
2022/04/26 04:47:28;;;;;;;5.65;1.30;;;;;;;12.48;54.11;101291.69;4988855;28;20100;-75
2022/04/26 04:49:56;;;;;;;2.95;1.05;;;;;;;12.45;53.26;101285.56;4988529;28;20093;-75
2022/04/26 04:52:25;;;;;;;3.53;1.02;;;;;;;12.41;54.18;101286.28;4988561;28;20050;-75
2022/04/26 04:54:53;;;;;;;7.30;1.15;;;;;;;12.35;54.28;101297.38;4988553;28;20050;-76
2022/04/26 04:57:21;;;;;;;2.47;1.10;;;;;;;12.31;53.47;101298.09;4988695;28;20082;-75
2022/04/26 04:59:52;;;;;;;5.05;1.15;;;;;;;12.21;54.49;101283.97;4988500;28;20220;-76
2022/04/26 05:02:20;;;;;;;4.78;1.20;;;;;;;12.26;53.68;101292.78;4992516;28;20599;-74
2022/04/26 05:04:49;;;;;;;2.97;1.02;;;;;;;12.22;53.75;101295.22;4992659;28;20042;-74
2022/04/26 05:07:17;;;;;;;3.85;0.93;;;;;;;12.18;54.10;101294.22;4992451;28;20050;-75
2022/04/26 05:09:45;;;;;;;3.33;0.82;;;;;;;12.11;53.63;101279.31;4992466;28;20381;-75
2022/04/26 05:12:14;;;;;;;3.40;1.27;;;;;;;12.12;54.37;101288.88;4991786;28;20117;-75
2022/04/26 05:14:42;;;;;;;3.42;0.90;;;;;;;12.08;53.46;101280.09;4992665;28;20072;-74
2022/04/26 05:17:12;;;;;;;2.65;0.80;;;;;;;12.06;53.02;101278.28;4992269;28;20042;-76
2022/04/26 05:19:40;;;;;;;4.78;1.27;;;;;;;12.02;53.56;101281.63;4995673;28;20047;-75
2022/04/26 05:22:10;;;;;;;2.83;1.08;;;;;;;11.95;53.45;101281.41;4992559;28;20046;-75
2022/04/26 05:24:54;;;;;;;3.85;1.10;;;;;;;11.95;53.74;101280.53;4991348;28;20074;-75
2022/04/26 05:27:22;;;;;;;2.15;0.88;;;;;;;11.91;54.16;101284.75;4992095;28;20050;-75
2022/04/26 05:29:51;;;;;;;2.85;1.42;;;;;;;11.87;53.43;101293.25;4991757;28;20172;-74
2022/04/26 05:32:23;;;;;;;5.00;1.08;;;;;;;11.84;53.44;101281.84;4991879;28;20057;-75
2022/04/26 05:34:58;;;;;;;2.38;1.10;;;;;;;11.82;53.53;101287.03;4991785;28;20061;-74
2022/04/26 05:37:27;;;;;;;5.20;1.02;;;;;;;11.80;52.67;101280.91;4992053;28;20506;-74
2022/04/26 05:39:55;;;;;;;3.22;0.98;;;;;;;11.78;52.62;101272.19;4991547;28;20142;-74
2022/04/26 05:42:24;;;;;;;1.20;0.60;;;;;;;11.77;52.96;101285.97;4991033;28;20598;-74
2022/04/26 05:44:52;;;;;;;1.73;1.10;;;;;;;11.74;53.28;101278.09;4991652;28;20497;-74
2022/04/26 05:47:22;;;;;;;4.45;1.00;;;;;;;11.73;53.38;101289.31;4991601;28;20054;-75
2022/04/26 05:49:51;;;;;;;3.95;0.90;;;;;;;11.71;53.01;101291.84;4991463;28;20065;-74
2022/04/26 05:52:19;;;;;;;3.03;0.88;;;;;;;11.68;53.24;101285.66;4991808;28;20053;-74
2022/04/26 05:54:47;;;;;;;2.72;0.93;;;;;;;11.61;53.72;101279.38;4990959;28;20069;-75
2022/04/26 05:57:15;;;;;;;3.22;1.02;;;;;;;11.56;58.32;101274.88;4991102;28;20061;-73
2022/04/26 05:59:44;;;;;;;3.97;1.40;;;;;;;11.49;57.00;101285.03;4990648;28;20153;-74
2022/04/26 06:02:12;;;;;;;1.88;1.23;;;;;;;11.44;58.00;101275.34;4991315;28;20050;-74
2022/04/26 06:04:42;;;;;;;3.42;1.00;;;;;;;11.44;56.11;101280.53;4990992;28;20066;-74
2022/04/26 06:07:11;;;;;;;4.28;1.05;;;;;;;11.44;56.60;101268.47;4991447;28;20206;-74
2022/04/26 06:09:40;;;;;;;4.15;1.00;;;;;;;11.45;56.23;101271.91;4991475;28;20046;-74
2022/04/26 06:12:09;;;;;;;3.30;0.88;;;;;;;11.43;54.81;101273.56;4990670;28;20043;-73
2022/04/26 06:14:37;;;;;;;5.00;0.98;;;;;;;11.38;57.53;101268.22;4991964;28;20054;-74
2022/04/26 06:17:06;;;;;;;1.67;1.00;;;;;;;11.36;58.75;101267.34;4994176;28;20050;-73
2022/04/26 06:19:34;;;;;;;1.55;0.88;;;;;;;11.33;59.61;101262.03;4992163;28;20069;-75
2022/04/26 06:22:04;;;;;;;5.88;1.45;;;;;;;11.25;57.02;101269.53;4989919;28;20050;-74
2022/04/26 06:24:32;;;;;;;4.20;1.00;;;;;;;11.18;57.44;101266.66;4991376;28;20061;-74
2022/04/26 06:27:02;;;;;;;4.20;1.23;;;;;;;11.16;58.76;101265.75;4990800;28;20058;-75
2022/04/26 06:29:30;;;;;;;3.60;1.30;;;;;;;11.16;56.54;101263.16;4991225;28;20130;-74
2022/04/26 06:31:59;;;;;;;1.58;0.85;;;;;;;11.16;57.67;101263.16;4990293;28;20416;-74
2022/04/26 06:34:27;;;;;;;3.20;0.88;;;;;;;11.14;60.14;101268.28;4990430;28;20145;-74
2022/04/26 06:36:56;;;;;;;2.35;0.73;;;;;;;11.04;61.95;101274.84;4990392;28;20053;-73
2022/04/26 06:39:26;;;;;;;4.28;0.95;;;;;;;10.95;60.95;101264.16;4990644;28;20050;-74
2022/04/26 06:41:54;;;;;;;2.17;1.10;;;;;;;10.88;60.31;101265.66;4989478;28;20491;-75
2022/04/26 06:44:22;;;;;;;3.70;0.95;;;;;;;10.85;59.46;101273.28;4990699;28;20068;-75
2022/04/26 06:46:50;;;;;;;3.80;0.80;;;;;;;10.84;61.31;101276.72;4989773;28;20056;-75
2022/04/26 06:49:19;;;;;;;2.58;1.40;;;;;;;10.87;61.11;101270.75;4989963;28;20046;-76
2022/04/26 06:51:47;;;;;;;2.40;0.93;;;;;;;10.88;60.76;101259.56;4989206;28;20130;-75
2022/04/26 06:54:15;;;;;;;1.45;0.70;;;;;;;10.88;60.75;101263.06;4990400;28;20050;-76
2022/04/26 06:56:46;;;;;;;4.10;1.30;;;;;;;10.89;60.97;101263.94;4989457;28;20054;-76
2022/04/26 06:59:15;;;;;;;5.03;0.93;;;;;;;10.86;60.51;101264.69;4989945;28;20046;-76
2022/04/26 07:01:43;;;;;;;1.85;0.80;;;;;;;10.87;60.64;101265.56;4990169;28;20563;-76
2022/04/26 07:04:11;;;;;;;3.97;1.17;;;;;;;10.84;59.95;101265.47;4989762;28;20091;-75
2022/04/26 07:06:40;;;;;;;6.05;1.00;;;;;;;10.84;60.01;101263.75;4989019;28;20054;-75
2022/04/26 07:09:08;;;;;;;3.33;1.00;;;;;;;10.82;59.09;101269.72;4989869;28;20046;-75
2022/04/26 07:11:36;;;;;;;3.42;1.20;;;;;;;10.82;58.49;101267.13;4990610;28;20496;-75
2022/04/26 07:14:06;;;;;;;4.53;1.02;;;;;;;10.78;63.76;101270.41;4992974;28;20054;-75
2022/04/26 07:16:35;;;;;;;3.83;1.13;;;;;;;10.71;62.91;101273.63;4991229;28;20109;-75
2022/04/26 07:19:03;;;;;;;3.17;1.13;;;;;;;10.66;62.57;101268.25;4989507;28;20046;-74
2022/04/26 07:21:31;;;;;;;1.85;1.08;;;;;;;10.62;64.01;101275.00;4989789;28;20065;-74
2022/04/26 07:23:59;;;;;;;3.00;1.10;;;;;;;10.58;66.19;101278.34;4987954;28;20050;-73
2022/04/26 07:26:28;;;;;;;3.55;1.00;;;;;;;10.51;64.55;101280.63;4990162;28;20065;-74
2022/04/26 07:28:56;;;;;;;3.22;0.98;;;;;;;10.46;64.86;101272.69;4989500;28;20061;-74
2022/04/26 07:31:26;;;;;;;3.08;0.75;;;;;;;10.45;64.86;101278.69;4989727;28;20054;-75
2022/04/26 07:36:39;;;;;;;5.30;0.73;;;;;;;10.44;64.84;101274.31;4989697;28;20061;-75
2022/04/26 07:39:07;;;;;;;2.08;0.90;;;;;;;10.41;65.36;101269.91;4989647;28;20077;-75
2022/04/26 07:41:36;;;;;;;1.60;1.13;;;;;;;10.37;67.68;101277.50;4989364;28;20055;-74
2022/04/26 07:44:04;;;;;;;1.63;0.80;;;;;;;10.33;66.59;101283.38;4989418;28;20046;-74
2022/04/26 07:46:34;;;;;;;2.40;1.35;;;;;;;10.23;65.96;101264.88;4989818;28;20054;-74
2022/04/26 07:49:02;;;;;;;2.90;0.95;;;;;;;10.27;65.23;101281.41;4989460;28;20046;-75
2022/04/26 07:51:31;;;;;;;3.28;0.90;;;;;;;10.31;65.13;101269.50;4988884;28;20053;-75
2022/04/26 07:54:00;;;;;;;4.57;1.02;;;;;;;10.31;66.03;101266.91;4989035;28;20047;-75
2022/04/26 07:56:28;;;;;;;3.20;1.17;;;;;;;10.36;64.79;101273.16;4988799;28;20049;-75
2022/04/26 07:58:58;;;;;;;3.70;1.20;;;;;;;10.37;65.25;101277.50;4989212;28;20109;-75
2022/04/26 08:01:26;;;;;;;2.53;1.13;;;;;;;10.39;65.65;101273.28;4989156;28;20050;-75
2022/04/26 08:03:56;;;;;;;6.38;1.35;;;;;;;10.39;64.84;101271.56;4988909;28;20053;-75
2022/04/26 08:06:25;;;;;;;2.85;0.90;;;;;;;10.41;65.14;101280.25;4989391;28;20421;-75
2022/04/26 08:08:54;;;;;;;3.17;0.95;;;;;;;10.40;63.46;101272.44;4989653;28;20137;-75
2022/04/26 08:11:23;;;;;;;1.65;1.13;;;;;;;10.40;63.43;101272.44;4991850;28;20047;-75
2022/04/26 08:13:51;;;;;;;1.08;0.60;;;;;;;10.38;62.69;101274.09;4989801;28;20081;-75
2022/04/26 08:16:20;;;;;;;5.15;0.73;;;;;;;10.36;63.52;101274.03;4988997;28;20417;-75
2022/04/26 08:18:48;;;;;;;4.97;1.23;;;;;;;10.36;64.43;101275.75;4988508;28;20056;-76
2022/04/26 08:21:18;;;;;;;2.20;0.80;;;;;;;10.35;63.98;101276.56;4988922;28;20054;-75
2022/04/26 08:29:25;;;;;;;4.80;1.30;;;;;;;10.33;65.41;101286.88;4989342;28;20062;-75
2022/04/26 08:31:55;;;;;;;2.13;1.10;;;;;;;10.32;65.17;101284.22;4988389;28;20050;-75
2022/04/26 08:34:24;;;;;;;4.03;0.70;;;;;;;10.29;64.51;101291.84;4988282;28;20081;-75
2022/04/26 08:36:54;;;;;;;3.00;1.48;;;;;;;10.26;64.63;101287.38;4991360;28;20131;-75
2022/04/26 08:39:23;;;;;;;3.97;0.73;;;;;;;10.26;63.77;101287.38;4993046;28;20046;-75
2022/04/26 08:41:51;;;;;;;5.07;0.85;;;;;;;10.24;63.96;101292.53;4992445;28;20057;-75
2022/04/26 08:44:20;;;;;;;3.42;0.57;;;;;;;10.22;64.57;101286.41;4993050;28;20050;-75
2022/04/26 08:52:20;;;;;;;1.58;0.68;;;;;;;10.14;64.47;101287.78;4993005;28;20069;-75
2022/04/26 08:54:49;;;;;;;3.42;1.02;;;;;;;10.12;65.22;101285.97;4992668;28;20050;-74
2022/04/26 08:57:17;;;;;;;2.40;0.70;;;;;;;10.12;67.25;101286.84;4992585;28;20042;-75
2022/04/26 08:59:49;;;;;;;2.03;0.80;;;;;;;10.07;66.04;101278.03;4992609;28;20050;-75
2022/04/26 09:02:19;;;;;;;2.13;1.38;;;;;;;10.06;66.68;101277.16;4991851;28;20047;-74
2022/04/26 09:04:48;;;;;;;2.67;0.95;;;;;;;10.06;67.58;101286.63;4992214;28;20054;-74
2022/04/26 09:07:30;;;;;;;2.65;1.27;;;;;;;10.01;66.89;101272.59;4994730;28;20054;-75
2022/04/26 09:10:10;;;;;;;4.30;0.88;;;;;;;9.98;66.34;101272.50;4993222;28;20058;-75
2022/04/26 09:13:01;;;;;;;2.38;0.98;;;;;;;9.94;66.95;101263.75;4992904;28;20081;-74
2022/04/26 09:15:41;;;;;;;2.20;0.80;;;;;;;9.94;67.86;101273.19;4992415;28;20054;-75
2022/04/26 09:18:20;;;;;;;1.35;0.68;;;;;;;9.88;67.76;101273.84;4992104;28;20046;-75
2022/04/26 09:20:50;;;;;;;3.83;0.80;;;;;;;9.84;66.66;101267.63;4992051;28;20050;-75
2022/04/26 09:23:28;;;;;;;1.00;0.47;;;;;;;9.83;68.01;101273.66;4991236;28;20050;-75
2022/04/26 09:26:08;;;;;;;1.70;0.88;;;;;;;9.80;68.19;101268.38;4992133;28;20085;-74
2022/04/26 09:28:38;;;;;;;3.85;1.05;;;;;;;9.73;69.86;101276.66;4992014;28;20051;-74
2022/04/26 09:31:19;;;;;;;3.50;1.05;;;;;;;9.66;71.23;101269.47;4991809;28;20058;-74
2022/04/26 09:33:51;;;;;;;5.15;1.13;;;;;;;9.61;70.57;101276.16;4991961;28;20050;-74
2022/04/26 09:36:21;;;;;;;2.35;0.82;;;;;;;9.58;70.89;101268.28;4991668;28;20108;-74
2022/04/26 09:38:56;;;;;;;1.85;0.90;;;;;;;9.55;71.40;101270.72;4991652;28;20054;-75
2022/04/26 09:41:26;;;;;;;1.63;0.90;;;;;;;9.55;70.98;101270.72;4992069;28;20426;-75
2022/04/26 09:44:01;;;;;;;3.97;1.52;;;;;;;9.54;71.71;101266.41;4991106;28;20043;-75
2022/04/26 09:46:49;;;;;;;3.85;1.20;;;;;;;9.52;71.35;101266.31;4991662;28;20154;-75
2022/04/26 09:49:21;;;;;;;5.50;1.17;;;;;;;9.50;71.07;101257.63;4991810;28;20042;-74
2022/04/26 09:51:52;;;;;;;4.70;1.10;;;;;;;9.48;72.02;101258.38;4991750;28;20094;-75
2022/04/26 09:54:23;;;;;;;3.83;1.08;;;;;;;9.41;72.18;101255.56;4991444;28;20053;-76
2022/04/26 09:56:52;;;;;;;7.95;1.20;;;;;;;9.42;72.00;101259.88;4991284;28;20046;-75
2022/04/26 09:59:28;;;;;;;1.42;1.05;;;;;;;9.40;72.49;101260.66;4991939;28;20042;-75
2022/04/26 10:01:58;;;;;;;7.63;1.35;;;;;;;9.38;70.92;101257.13;4991160;28;20069;-75
2022/04/26 10:04:29;;;;;;;1.65;1.05;;;;;;;9.30;71.89;101258.47;4992569;28;20097;-75
2022/04/26 10:07:04;;;;;;;4.70;1.00;;;;;;;9.19;76.58;101260.63;4993603;28;20085;-74
2022/04/26 10:09:35;;;;;;;2.97;0.95;;;;;;;9.05;77.46;101251.38;4992217;28;20124;-75
2022/04/26 10:12:05;;;;;;;4.75;1.38;;;;;;;9.00;77.65;101259.81;4971722;28;20142;-75
2022/04/26 10:14:35;;;;;;;3.83;1.52;;;;;;;8.97;77.47;101257.09;4971318;28;20083;-75
2022/04/26 10:17:04;;;;;;;4.63;0.90;;;;;;;9.00;78.85;101264.06;4971465;28;20050;-75
2022/04/26 10:19:40;;;;;;;1.85;1.10;;;;;;;9.01;78.55;101258.13;4971897;28;20325;-74
2022/04/26 10:22:11;;;;;;;6.65;1.25;;;;;;;8.99;77.74;101252.88;4971321;28;20055;-75
2022/04/26 10:24:42;;;;;;;2.53;1.10;;;;;;;8.95;77.76;101258.72;4988214;28;20500;-75
2022/04/26 10:27:22;;;;;;;1.85;1.00;;;;;;;8.89;78.43;101258.47;4990992;28;20167;-76
2022/04/26 10:29:51;;;;;;;4.18;1.05;;;;;;;8.81;80.08;101258.09;4990450;28;20058;-75
2022/04/26 10:32:31;;;;;;;4.28;1.13;;;;;;;8.73;81.61;101262.06;4990897;28;20081;-76
2022/04/26 10:35:32;;;;;;;3.15;0.90;;;;;;;8.70;84.72;101259.31;4990462;28;20046;-76
2022/04/26 10:38:17;;;;;;;4.03;1.20;;;;;;;8.70;84.20;101266.19;4990884;28;20516;-75
2022/04/26 10:41:11;;;;;;;3.50;1.15;;;;;;;8.73;83.41;101266.34;4989690;28;20050;-76
2022/04/26 10:43:42;;;;;;;3.55;1.13;;;;;;;8.73;81.71;101271.50;4984568;28;20052;-75
2022/04/26 10:46:14;;;;;;;1.55;0.82;;;;;;;8.71;82.26;101265.38;4990586;28;20050;-75
2022/04/26 10:48:43;;;;;;;1.90;0.93;;;;;;;8.69;83.21;101267.00;4990653;28;20496;-76
2022/04/26 10:51:33;;;;;;;6.50;1.15;;;;;;;8.65;82.44;101283.16;4990319;28;20073;-76
2022/04/26 10:54:02;;;;;;;3.47;1.27;;;;;;;8.64;83.00;101279.69;4990373;28;20078;-76
2022/04/26 10:56:32;;;;;;;3.83;1.23;;;;;;;8.66;82.35;101284.91;4990316;28;20050;-75
2022/04/26 10:59:01;;;;;;;2.92;1.10;;;;;;;8.68;82.49;101291.03;4990176;28;20046;-75
2022/04/26 11:01:29;;;;;;;7.22;1.25;;;;;;;8.69;82.71;101282.50;4990951;28;20046;-75
2022/04/26 11:04:01;;;;;;;6.32;1.17;;;;;;;8.67;82.04;101287.56;4993313;28;20085;-74
2022/04/26 11:06:36;;;;;;;3.63;0.65;;;;;;;8.67;82.07;101290.16;4990973;28;20058;-75
2022/04/26 11:09:10;;;;;;;5.50;0.90;;;;;;;8.68;81.96;101291.03;4990216;28;20086;-76
2022/04/26 11:11:53;;;;;;;7.38;1.35;;;;;;;8.67;81.01;101295.31;4989742;28;20050;-76
2022/04/26 11:14:23;;;;;;;3.90;1.20;;;;;;;8.66;81.69;101297.81;4990524;28;20081;-75
2022/04/26 11:16:58;;;;;;;3.63;1.02;;;;;;;8.65;82.26;101301.22;4990161;28;20053;-75
2022/04/26 11:19:29;;;;;;;2.95;0.93;;;;;;;8.63;82.19;101295.97;4990035;28;20050;-75
2022/04/26 11:21:58;;;;;;;2.33;0.90;;;;;;;8.63;83.82;101300.25;4989392;28;20157;-74
2022/04/26 11:29:58;;;;;;;4.63;1.05;;;;;;;8.55;85.57;101311.09;4967181;28;20547;-74
2022/04/26 11:32:31;;;;;;;3.05;1.38;;;;;;;8.49;85.51;101310.81;4969626;28;20125;-74
2022/04/26 11:35:00;;;;;;;3.78;1.10;;;;;;;8.39;85.81;101313.75;4969998;28;20057;-74
2022/04/26 11:37:29;;;;;;;3.40;1.27;;;;;;;8.34;85.00;101313.53;4969920;28;20050;-74
2022/04/26 11:40:01;;;;;;;3.72;1.13;;;;;;;8.33;84.83;101310.88;4970077;28;20078;-75
2022/04/26 11:42:35;;;;;;;3.45;1.17;;;;;;;8.34;84.79;101310.06;4969064;28;20051;-75
2022/04/26 11:45:06;;;;;;;1.42;0.68;;;;;;;8.36;84.39;101309.34;4969733;28;20062;-74
2022/04/26 11:47:46;;;;;;;3.85;1.00;;;;;;;8.35;83.89;101312.72;4969850;28;20057;-74
2022/04/26 11:50:16;;;;;;;2.60;0.98;;;;;;;8.31;84.73;101315.06;4970499;28;20579;-74
2022/04/26 11:52:46;;;;;;;4.45;1.33;;;;;;;8.25;87.29;101319.97;4969722;28;20039;-74
2022/04/26 11:55:22;;;;;;;4.22;0.98;;;;;;;8.21;87.68;101315.47;4970224;28;20109;-73
2022/04/26 11:57:53;;;;;;;1.48;0.88;;;;;;;8.19;89.72;101305.06;4970172;28;20500;-74
2022/04/26 12:00:23;;;;;;;2.88;0.88;;;;;;;8.23;89.04;101312.13;4970423;28;20611;-75
2022/04/26 12:02:52;;;;;;;4.20;1.23;;;;;;;8.27;88.03;101315.72;4973314;28;20051;-74
2022/04/26 12:05:23;;;;;;;6.95;1.13;;;;;;;8.27;88.04;101313.16;4970407;28;20042;-74
2022/04/26 12:07:53;;;;;;;1.90;1.10;;;;;;;8.24;89.16;101302.69;4970334;28;20097;-74
2022/04/26 12:10:29;;;;;;;2.30;1.13;;;;;;;8.28;88.38;101307.19;4969290;28;20091;-75
2022/04/26 12:13:01;;;;;;;5.35;1.58;;;;;;;8.30;88.95;101310.75;4969407;28;20137;-75
2022/04/26 12:15:31;;;;;;;2.58;0.85;;;;;;;8.31;88.01;101307.34;4970059;28;20046;-75
2022/04/26 12:18:11;;;;;;;4.18;1.48;;;;;;;8.32;87.70;101306.53;4969371;28;20061;-75
2022/04/26 12:20:56;;;;;;;6.50;1.30;;;;;;;8.33;87.86;101313.44;4970083;28;20051;-74
2022/04/26 12:23:26;;;;;;;4.22;1.20;;;;;;;8.34;88.18;101307.50;4975736;28;20065;-73
2022/04/26 12:25:56;;;;;;;4.80;2.08;;;;;;;8.31;88.19;101305.63;4989392;28;20050;-73
2022/04/26 12:28:26;;;;;;;3.58;1.05;;;;;;;8.33;88.15;101303.13;4988699;28;20141;-75
2022/04/26 12:30:56;;;;;;;3.05;1.65;;;;;;;8.33;88.07;101304.00;4989189;28;20112;-75
2022/04/26 12:33:34;;;;;;;4.10;1.08;;;;;;;8.34;89.50;101310.94;4988533;28;20097;-75
2022/04/26 12:36:04;;;;;;;2.85;1.10;;;;;;;8.33;89.94;101308.28;4988784;28;20132;-74
2022/04/26 12:38:45;;;;;;;6.32;1.15;;;;;;;8.31;89.84;101315.06;4988571;28;20046;-74
2022/04/26 12:41:14;;;;;;;4.10;1.30;;;;;;;8.28;89.65;101312.34;4989345;28;20088;-75
2022/04/26 12:43:45;;;;;;;6.25;1.40;;;;;;;8.27;89.86;101306.31;4988428;28;20140;-74
2022/04/26 12:46:14;;;;;;;2.58;1.27;;;;;;;8.28;89.56;101312.34;4988299;28;20065;-75
2022/04/26 12:51:54;;;;;;;5.68;1.10;;;;;;;8.19;92.04;101311.09;4988359;28;20061;-75
2022/04/26 12:54:23;;;;;;;10.82;1.60;;;;;;;8.10;99.25;101313.22;4988348;28;20133;-76
2022/04/26 12:57:01;;;;;;;7.57;1.90;;;;;;;8.03;100.00;101313.75;4988850;28;20089;-76
2022/04/26 12:59:38;;;;;;;5.78;1.00;;;;;;;7.98;100.00;101312.66;4989009;28;20060;-75
2022/04/26 13:02:06;;;;;;;4.32;1.30;;;;;;;7.91;100.00;101306.31;4991184;28;20129;-76
2022/04/26 13:04:35;;;;;;;2.08;0.98;;;;;;;7.90;100.00;101312.28;4989525;28;20046;-76
2022/04/26 13:07:03;;;;;;;2.47;0.82;;;;;;;7.88;100.00;101308.75;4988743;28;20097;-76
2022/04/26 13:09:32;;;;;;;5.20;1.13;;;;;;;7.90;100.00;101311.38;4988070;28;20145;-76
2022/04/26 13:12:01;;;;;;;2.70;1.10;;;;;;;7.90;100.00;101311.38;4988352;28;20066;-75
2022/04/26 13:14:29;;;;;;;4.55;1.00;;;;;;;7.88;100.00;101311.31;4988363;28;20054;-76
2022/04/26 13:16:59;;;;;;;4.88;1.30;;;;;;;7.87;100.00;101311.22;4988339;28;20058;-76
2022/04/26 13:19:28;;;;;;;4.75;1.80;;;;;;;7.90;100.00;101313.94;4988126;28;20105;-75
2022/04/26 13:21:56;;;;;;;7.97;1.52;;;;;;;7.93;100.00;101314.13;4988063;28;20109;-75
2022/04/26 13:24:28;;;;;;;2.67;1.10;;;;;;;7.96;100.00;101312.56;4965270;28;20059;-76
2022/04/26 13:26:56;;;;;;;1.90;0.80;;;;;;;7.89;100.00;101305.34;4953190;28;20047;-76
2022/04/26 13:29:25;;;;;;;6.10;1.05;;;;;;;8.05;100.00;101314.72;4953128;29;20055;-77
2022/04/26 13:31:53;;;;;;;3.22;1.15;;;;;;;8.05;100.00;101317.28;4953161;29;20058;-77
2022/04/26 13:34:23;;;;;;;3.03;1.02;;;;;;;8.02;100.00;101324.88;4952686;29;20110;-77
2022/04/26 13:36:52;;;;;;;7.35;2.08;;;;;;;7.99;100.00;101319.56;4952620;29;20617;-76
2022/04/26 13:39:21;;;;;;;3.92;0.95;;;;;;;8.00;100.00;101313.59;4934166;29;20569;-75
2022/04/26 13:41:50;;;;;;;4.20;0.93;;;;;;;8.05;100.00;101317.28;4932399;29;20161;-76
2022/04/26 13:44:19;;;;;;;6.15;1.27;;;;;;;8.06;100.00;101318.16;4933584;29;20056;-76
2022/04/26 13:46:48;;;;;;;11.90;1.60;;;;;;;8.04;100.00;101320.69;4933722;29;20047;-78
2022/04/26 13:49:17;;;;;;;4.30;0.93;;;;;;;8.04;100.00;101314.63;4934087;29;20059;-76
2022/04/26 13:51:46;;;;;;;6.65;1.05;;;;;;;8.07;100.00;101320.81;4943427;29;20051;-78
2022/04/26 13:54:15;;;;;;;6.45;1.38;;;;;;;8.11;100.00;101329.59;4952174;29;20130;-77
2022/04/26 13:56:44;;;;;;;3.90;0.93;;;;;;;8.15;100.00;101329.81;4953027;28;20505;-79
2022/04/26 13:59:13;;;;;;;4.55;1.23;;;;;;;8.11;100.00;101333.06;4954277;28;20056;-73
2022/04/26 14:01:41;;;;;;;3.22;1.23;;;;;;;8.03;100.00;101329.22;4954035;29;20055;-78
2022/04/26 14:04:10;;;;;;;2.72;1.35;;;;;;;8.02;100.00;101326.53;4953172;29;20691;-77
2022/04/26 14:06:38;;;;;;;5.07;1.13;;;;;;;8.03;100.00;101328.31;4952693;29;20561;-77
2022/04/26 14:09:08;;;;;;;2.42;0.98;;;;;;;8.01;100.00;101330.81;4952461;29;20058;-81
2022/04/26 14:11:37;;;;;;;5.28;0.95;;;;;;;8.02;100.00;101332.59;4952368;29;20134;-76
2022/04/26 14:22:21;;;;;;;3.83;1.17;;;;;;;8.15;100.00;101339.22;4952197;29;20062;-76
2022/04/26 14:24:53;;;;;;;3.40;1.10;;;;;;;8.23;100.00;101339.63;4985582;28;20117;-78
2022/04/26 14:27:22;;;;;;;1.07;0.87;;;;;;;8.28;100.00;101341.59;4990647;28;20105;-76
2022/04/26 14:29:50;;;;;;;4.85;0.80;;;;;;;8.30;100.00;101344.25;4991200;28;20122;-74
2022/04/26 14:32:19;;;;;;;5.10;1.17;;;;;;;8.35;100.00;101341.06;4990669;28;20050;-77
2022/04/26 14:34:48;;;;;;;3.80;1.33;;;;;;;8.41;100.00;101337.94;4990111;28;20112;-75
2022/04/26 14:37:16;;;;;;;2.28;0.85;;;;;;;8.44;100.00;101342.38;4990817;28;20697;-75
2022/04/26 14:39:45;;;;;;;4.80;1.38;;;;;;;8.46;100.00;101351.94;4990611;28;20559;-80
2022/04/26 14:42:15;;;;;;;2.50;0.95;;;;;;;8.51;100.00;101354.75;4989961;28;20050;-75
2022/04/26 14:44:44;;;;;;;3.60;1.27;;;;;;;8.55;100.00;101362.69;4989005;28;20133;-75
2022/04/26 14:47:13;;;;;;;2.05;0.88;;;;;;;8.55;100.00;101357.53;4988598;28;20142;-78
2022/04/26 14:49:43;;;;;;;3.75;1.08;;;;;;;8.57;100.00;101361.06;4989143;28;20682;-78
2022/04/26 14:52:14;;;;;;;3.10;1.58;;;;;;;8.59;100.00;101354.28;4988525;28;20085;-80
2022/04/26 14:54:42;;;;;;;4.68;1.52;;;;;;;8.62;100.00;101350.09;4989370;28;20089;-76
2022/04/26 14:57:11;;;;;;;4.38;0.77;;;;;;;8.61;100.00;101351.75;4989100;28;20050;-86
2022/04/26 14:59:42;;;;;;;6.38;1.23;;;;;;;8.59;100.00;101351.72;4993343;28;20113;-74
2022/04/26 15:02:11;;;;;;;1.27;0.98;;;;;;;8.55;100.00;101338.59;4990719;28;20050;-72
2022/04/26 15:04:40;;;;;;;4.10;1.08;;;;;;;8.59;100.00;101351.72;4990101;28;20133;-73
2022/04/26 15:07:08;;;;;;;4.30;0.95;;;;;;;8.55;100.00;101347.22;4990361;28;20058;-74
2022/04/26 15:09:45;;;;;;;3.55;1.40;;;;;;;8.58;100.00;101349.06;4989177;28;20050;-73
2022/04/26 15:17:49;;;;;;;3.85;1.02;;;;;;;8.68;100.00;101352.94;4990284;28;20476;-74
2022/04/26 15:20:19;;;;;;;4.30;1.23;;;;;;;8.76;100.00;101356.78;4989738;28;20060;-74
2022/04/26 15:22:48;;;;;;;3.88;1.00;;;;;;;8.87;100.00;101355.56;4989441;28;20046;-73
2022/04/26 15:25:16;;;;;;;6.60;1.10;;;;;;;9.01;100.00;101353.63;4989313;28;20527;-76
2022/04/26 15:27:45;;;;;;;5.82;0.90;;;;;;;9.09;100.00;101357.41;4990135;28;20085;-75
2022/04/26 15:30:15;;;;;;;4.20;1.00;;;;;;;9.14;100.00;101362.78;4989910;28;20105;-74
2022/04/26 15:32:43;;;;;;;1.00;0.70;;;;;;;9.22;100.00;101352.00;4990276;28;20042;-73
2022/04/26 15:35:13;;;;;;;3.00;0.60;;;;;;;9.40;100.00;101348.47;4989141;28;20046;-74
2022/04/26 15:37:41;;;;;;;3.72;1.52;;;;;;;10.23;100.00;101352.81;4989686;28;20412;-72
2022/04/26 15:40:11;;;;;;;7.80;1.67;;;;;;;10.64;100.00;101348.41;4989451;28;20046;-74
2022/04/26 15:42:39;;;;;;;6.63;1.35;;;;;;;10.71;94.11;101356.44;4989634;28;20046;-73
2022/04/26 15:45:08;;;;;;;5.30;1.35;;;;;;;10.68;89.19;101362.38;4988322;28;20078;-73
2022/04/26 15:47:38;;;;;;;5.07;1.35;;;;;;;10.74;91.61;101346.19;4989315;28;20073;-73
2022/04/26 15:50:08;;;;;;;2.28;0.80;;;;;;;10.79;90.88;101361.09;4989965;28;20058;-73
2022/04/26 15:52:37;;;;;;;6.13;1.10;;;;;;;10.90;89.41;101358.88;4989086;28;20109;-74
2022/04/26 15:55:07;;;;;;;3.97;1.20;;;;;;;10.87;84.78;101349.28;4989490;28;20057;-74